sensor_id;sensor_type;location;lat;lon;timestamp;P1;durP1;ratioP1;P2;durP2;ratioP2
18176;SDS011;9213;50.858;3.964;2022-10-17T00:00:10;22.00;;;10.87;;
18176;SDS011;9213;50.858;3.964;2022-10-17T00:02:38;21.20;;;13.10;;
18176;SDS011;9213;50.858;3.964;2022-10-17T00:05:04;17.43;;;10.93;;
18176;SDS011;9213;50.858;3.964;2022-10-17T00:07:31;20.80;;;11.00;;
18176;SDS011;9213;50.858;3.964;2022-10-17T00:10:00;23.57;;;10.87;;
18176;SDS011;9213;50.858;3.964;2022-10-17T00:12:26;18.00;;;11.17;;
18176;SDS011;9213;50.858;3.964;2022-10-17T00:14:53;22.40;;;10.47;;
18176;SDS011;9213;50.858;3.964;2022-10-17T00:17:20;14.63;;;10.53;;
18176;SDS011;9213;50.858;3.964;2022-10-17T00:19:47;20.53;;;9.03;;
18176;SDS011;9213;50.858;3.964;2022-10-17T00:22:14;18.57;;;10.00;;
18176;SDS011;9213;50.858;3.964;2022-10-17T00:24:41;13.73;;;9.17;;
18176;SDS011;9213;50.858;3.964;2022-10-17T00:27:09;18.97;;;9.27;;
18176;SDS011;9213;50.858;3.964;2022-10-17T00:29:36;15.53;;;10.03;;
18176;SDS011;9213;50.858;3.964;2022-10-17T00:32:03;18.93;;;9.47;;
18176;SDS011;9213;50.858;3.964;2022-10-17T00:34:30;20.33;;;9.57;;
18176;SDS011;9213;50.858;3.964;2022-10-17T00:36:57;16.40;;;9.50;;
18176;SDS011;9213;50.858;3.964;2022-10-17T00:39:24;16.33;;;11.63;;
18176;SDS011;9213;50.858;3.964;2022-10-17T00:41:51;13.93;;;11.13;;
18176;SDS011;9213;50.858;3.964;2022-10-17T00:47:23;15.47;;;11.17;;
18176;SDS011;9213;50.858;3.964;2022-10-17T00:49:50;16.20;;;11.50;;
18176;SDS011;9213;50.858;3.964;2022-10-17T00:52:18;21.30;;;11.03;;
18176;SDS011;9213;50.858;3.964;2022-10-17T00:54:48;12.30;;;10.70;;
18176;SDS011;9213;50.858;3.964;2022-10-17T00:57:19;15.17;;;12.23;;
18176;SDS011;9213;50.858;3.964;2022-10-17T00:59:47;18.50;;;12.83;;
18176;SDS011;9213;50.858;3.964;2022-10-17T01:02:18;18.77;;;12.03;;
18176;SDS011;9213;50.858;3.964;2022-10-17T01:04:48;15.90;;;13.00;;
18176;SDS011;9213;50.858;3.964;2022-10-17T01:07:19;18.00;;;13.23;;
18176;SDS011;9213;50.858;3.964;2022-10-17T01:09:46;18.63;;;13.40;;
18176;SDS011;9213;50.858;3.964;2022-10-17T01:12:15;15.77;;;12.27;;
18176;SDS011;9213;50.858;3.964;2022-10-17T01:14:49;15.73;;;12.53;;
18176;SDS011;9213;50.858;3.964;2022-10-17T01:17:28;18.67;;;12.97;;
18176;SDS011;9213;50.858;3.964;2022-10-17T01:20:11;17.27;;;12.13;;
18176;SDS011;9213;50.858;3.964;2022-10-17T01:23:05;17.53;;;12.33;;
18176;SDS011;9213;50.858;3.964;2022-10-17T01:25:45;17.03;;;12.63;;
18176;SDS011;9213;50.858;3.964;2022-10-17T01:28:24;17.57;;;12.63;;
18176;SDS011;9213;50.858;3.964;2022-10-17T01:31:07;15.53;;;12.93;;
18176;SDS011;9213;50.858;3.964;2022-10-17T01:33:43;18.90;;;11.63;;
18176;SDS011;9213;50.858;3.964;2022-10-17T01:36:15;15.53;;;12.10;;
18176;SDS011;9213;50.858;3.964;2022-10-17T01:38:51;16.10;;;12.23;;
18176;SDS011;9213;50.858;3.964;2022-10-17T01:41:23;14.33;;;11.73;;
18176;SDS011;9213;50.858;3.964;2022-10-17T01:44:02;17.67;;;12.83;;
18176;SDS011;9213;50.858;3.964;2022-10-17T01:46:36;13.73;;;11.80;;
18176;SDS011;9213;50.858;3.964;2022-10-17T01:49:05;16.53;;;13.33;;
18176;SDS011;9213;50.858;3.964;2022-10-17T01:51:35;15.57;;;12.67;;
18176;SDS011;9213;50.858;3.964;2022-10-17T01:54:06;15.17;;;11.73;;
18176;SDS011;9213;50.858;3.964;2022-10-17T01:56:37;18.07;;;11.83;;
18176;SDS011;9213;50.858;3.964;2022-10-17T01:59:09;17.10;;;12.20;;
18176;SDS011;9213;50.858;3.964;2022-10-17T02:01:42;14.63;;;12.47;;
18176;SDS011;9213;50.858;3.964;2022-10-17T02:04:12;19.00;;;12.40;;
18176;SDS011;9213;50.858;3.964;2022-10-17T02:06:40;20.50;;;13.20;;
18176;SDS011;9213;50.858;3.964;2022-10-17T02:09:17;18.03;;;13.03;;
18176;SDS011;9213;50.858;3.964;2022-10-17T02:14:43;16.27;;;12.93;;
18176;SDS011;9213;50.858;3.964;2022-10-17T02:17:21;19.57;;;12.30;;
18176;SDS011;9213;50.858;3.964;2022-10-17T02:20:02;19.70;;;12.73;;
18176;SDS011;9213;50.858;3.964;2022-10-17T02:22:39;20.10;;;12.93;;
18176;SDS011;9213;50.858;3.964;2022-10-17T02:25:13;20.73;;;12.70;;
18176;SDS011;9213;50.858;3.964;2022-10-17T02:27:50;26.20;;;14.27;;
18176;SDS011;9213;50.858;3.964;2022-10-17T02:30:22;18.47;;;12.53;;
18176;SDS011;9213;50.858;3.964;2022-10-17T02:32:58;22.00;;;14.20;;
18176;SDS011;9213;50.858;3.964;2022-10-17T02:35:29;21.27;;;13.50;;
18176;SDS011;9213;50.858;3.964;2022-10-17T02:37:58;16.40;;;12.87;;
18176;SDS011;9213;50.858;3.964;2022-10-17T02:40:25;23.70;;;13.50;;
18176;SDS011;9213;50.858;3.964;2022-10-17T02:42:55;16.53;;;12.07;;
18176;SDS011;9213;50.858;3.964;2022-10-17T02:45:25;20.13;;;12.90;;
18176;SDS011;9213;50.858;3.964;2022-10-17T02:47:55;23.20;;;13.97;;
18176;SDS011;9213;50.858;3.964;2022-10-17T02:50:30;20.17;;;13.53;;
18176;SDS011;9213;50.858;3.964;2022-10-17T02:53:04;19.67;;;13.33;;
18176;SDS011;9213;50.858;3.964;2022-10-17T02:55:38;17.43;;;12.13;;
18176;SDS011;9213;50.858;3.964;2022-10-17T02:58:10;18.53;;;13.43;;
18176;SDS011;9213;50.858;3.964;2022-10-17T03:00:40;21.90;;;13.33;;
18176;SDS011;9213;50.858;3.964;2022-10-17T03:03:18;21.20;;;13.57;;
18176;SDS011;9213;50.858;3.964;2022-10-17T03:05:46;16.57;;;12.83;;
18176;SDS011;9213;50.858;3.964;2022-10-17T03:08:13;19.73;;;12.93;;
18176;SDS011;9213;50.858;3.964;2022-10-17T03:10:40;17.47;;;12.90;;
18176;SDS011;9213;50.858;3.964;2022-10-17T03:13:07;16.80;;;12.53;;
18176;SDS011;9213;50.858;3.964;2022-10-17T03:15:34;18.73;;;13.73;;
18176;SDS011;9213;50.858;3.964;2022-10-17T03:18:01;18.00;;;13.97;;
18176;SDS011;9213;50.858;3.964;2022-10-17T03:20:29;20.90;;;12.87;;
18176;SDS011;9213;50.858;3.964;2022-10-17T03:22:56;19.23;;;12.13;;
18176;SDS011;9213;50.858;3.964;2022-10-17T03:25:23;19.37;;;13.67;;
18176;SDS011;9213;50.858;3.964;2022-10-17T03:27:50;14.83;;;13.23;;
18176;SDS011;9213;50.858;3.964;2022-10-17T03:30:16;25.40;;;13.97;;
18176;SDS011;9213;50.858;3.964;2022-10-17T03:32:43;24.03;;;14.07;;
18176;SDS011;9213;50.858;3.964;2022-10-17T03:35:10;19.20;;;14.07;;
18176;SDS011;9213;50.858;3.964;2022-10-17T03:37:38;18.07;;;12.93;;
18176;SDS011;9213;50.858;3.964;2022-10-17T03:40:05;22.83;;;13.40;;
18176;SDS011;9213;50.858;3.964;2022-10-17T03:42:32;17.90;;;12.97;;
18176;SDS011;9213;50.858;3.964;2022-10-17T03:44:59;16.30;;;12.80;;
18176;SDS011;9213;50.858;3.964;2022-10-17T03:47:26;17.20;;;13.50;;
18176;SDS011;9213;50.858;3.964;2022-10-17T03:49:53;21.13;;;14.27;;
18176;SDS011;9213;50.858;3.964;2022-10-17T03:52:20;24.10;;;13.97;;
18176;SDS011;9213;50.858;3.964;2022-10-17T03:54:49;19.33;;;13.67;;
18176;SDS011;9213;50.858;3.964;2022-10-17T03:57:16;24.23;;;12.70;;
18176;SDS011;9213;50.858;3.964;2022-10-17T03:59:43;19.60;;;13.57;;
18176;SDS011;9213;50.858;3.964;2022-10-17T04:02:10;18.97;;;12.97;;
18176;SDS011;9213;50.858;3.964;2022-10-17T04:04:37;15.33;;;12.77;;
18176;SDS011;9213;50.858;3.964;2022-10-17T04:07:04;18.03;;;13.40;;
18176;SDS011;9213;50.858;3.964;2022-10-17T04:09:31;23.00;;;13.07;;
18176;SDS011;9213;50.858;3.964;2022-10-17T04:11:59;17.33;;;13.73;;
18176;SDS011;9213;50.858;3.964;2022-10-17T04:14:26;19.27;;;13.07;;
18176;SDS011;9213;50.858;3.964;2022-10-17T04:16:52;21.13;;;12.73;;
18176;SDS011;9213;50.858;3.964;2022-10-17T04:19:19;19.17;;;13.27;;
18176;SDS011;9213;50.858;3.964;2022-10-17T04:21:46;20.33;;;13.53;;
18176;SDS011;9213;50.858;3.964;2022-10-17T04:24:13;16.63;;;12.30;;
18176;SDS011;9213;50.858;3.964;2022-10-17T04:26:40;17.43;;;11.97;;
18176;SDS011;9213;50.858;3.964;2022-10-17T04:29:09;18.13;;;12.77;;
18176;SDS011;9213;50.858;3.964;2022-10-17T04:31:36;17.97;;;12.90;;
18176;SDS011;9213;50.858;3.964;2022-10-17T04:34:03;13.40;;;11.73;;
18176;SDS011;9213;50.858;3.964;2022-10-17T04:36:30;18.63;;;12.57;;
18176;SDS011;9213;50.858;3.964;2022-10-17T04:38:57;27.10;;;13.23;;
18176;SDS011;9213;50.858;3.964;2022-10-17T04:41:25;17.83;;;12.93;;
18176;SDS011;9213;50.858;3.964;2022-10-17T04:43:52;15.50;;;11.93;;
18176;SDS011;9213;50.858;3.964;2022-10-17T04:46:20;17.50;;;12.17;;
18176;SDS011;9213;50.858;3.964;2022-10-17T04:48:47;16.13;;;12.37;;
18176;SDS011;9213;50.858;3.964;2022-10-17T04:51:15;16.00;;;11.90;;
18176;SDS011;9213;50.858;3.964;2022-10-17T04:53:43;14.53;;;12.50;;
18176;SDS011;9213;50.858;3.964;2022-10-17T04:56:11;16.27;;;12.27;;
18176;SDS011;9213;50.858;3.964;2022-10-17T04:58:40;15.57;;;12.33;;
18176;SDS011;9213;50.858;3.964;2022-10-17T05:01:09;16.50;;;11.93;;
18176;SDS011;9213;50.858;3.964;2022-10-17T05:03:40;13.87;;;11.30;;
18176;SDS011;9213;50.858;3.964;2022-10-17T05:06:07;13.43;;;12.03;;
18176;SDS011;9213;50.858;3.964;2022-10-17T05:08:37;14.03;;;12.27;;
18176;SDS011;9213;50.858;3.964;2022-10-17T05:11:05;13.50;;;10.80;;
18176;SDS011;9213;50.858;3.964;2022-10-17T05:13:42;15.00;;;11.40;;
18176;SDS011;9213;50.858;3.964;2022-10-17T05:16:08;21.37;;;12.37;;
18176;SDS011;9213;50.858;3.964;2022-10-17T05:18:35;16.00;;;10.97;;
18176;SDS011;9213;50.858;3.964;2022-10-17T05:21:04;14.53;;;10.77;;
18176;SDS011;9213;50.858;3.964;2022-10-17T05:23:31;13.53;;;11.00;;
18176;SDS011;9213;50.858;3.964;2022-10-17T05:25:58;12.47;;;11.17;;
18176;SDS011;9213;50.858;3.964;2022-10-17T05:28:25;15.67;;;10.53;;
18176;SDS011;9213;50.858;3.964;2022-10-17T05:30:51;16.00;;;11.73;;
18176;SDS011;9213;50.858;3.964;2022-10-17T05:33:18;14.00;;;10.97;;
18176;SDS011;9213;50.858;3.964;2022-10-17T05:35:45;11.70;;;10.00;;
18176;SDS011;9213;50.858;3.964;2022-10-17T05:38:13;13.20;;;11.50;;
18176;SDS011;9213;50.858;3.964;2022-10-17T05:40:40;13.93;;;10.50;;
18176;SDS011;9213;50.858;3.964;2022-10-17T05:43:07;11.90;;;9.53;;
18176;SDS011;9213;50.858;3.964;2022-10-17T05:45:34;13.37;;;10.23;;
18176;SDS011;9213;50.858;3.964;2022-10-17T05:48:01;13.07;;;9.93;;
18176;SDS011;9213;50.858;3.964;2022-10-17T05:50:28;13.10;;;9.90;;
18176;SDS011;9213;50.858;3.964;2022-10-17T05:52:55;11.23;;;10.03;;
18176;SDS011;9213;50.858;3.964;2022-10-17T05:55:23;10.70;;;9.57;;
18176;SDS011;9213;50.858;3.964;2022-10-17T05:57:50;16.03;;;9.60;;
18176;SDS011;9213;50.858;3.964;2022-10-17T06:00:18;13.57;;;9.87;;
18176;SDS011;9213;50.858;3.964;2022-10-17T06:02:46;12.23;;;9.97;;
18176;SDS011;9213;50.858;3.964;2022-10-17T06:05:13;11.10;;;9.57;;
18176;SDS011;9213;50.858;3.964;2022-10-17T06:07:40;14.40;;;9.77;;
18176;SDS011;9213;50.858;3.964;2022-10-17T06:10:07;10.83;;;9.53;;
18176;SDS011;9213;50.858;3.964;2022-10-17T06:12:37;12.30;;;9.63;;
18176;SDS011;9213;50.858;3.964;2022-10-17T06:15:05;10.27;;;9.23;;
18176;SDS011;9213;50.858;3.964;2022-10-17T06:17:32;15.47;;;9.47;;
18176;SDS011;9213;50.858;3.964;2022-10-17T06:19:59;13.73;;;8.87;;
18176;SDS011;9213;50.858;3.964;2022-10-17T06:22:26;14.83;;;9.50;;
18176;SDS011;9213;50.858;3.964;2022-10-17T06:24:53;17.63;;;9.77;;
18176;SDS011;9213;50.858;3.964;2022-10-17T06:27:20;11.97;;;9.73;;
18176;SDS011;9213;50.858;3.964;2022-10-17T06:29:48;15.47;;;10.60;;
18176;SDS011;9213;50.858;3.964;2022-10-17T06:32:16;13.63;;;8.80;;
18176;SDS011;9213;50.858;3.964;2022-10-17T06:34:42;14.37;;;9.73;;
18176;SDS011;9213;50.858;3.964;2022-10-17T06:37:09;20.00;;;11.97;;
18176;SDS011;9213;50.858;3.964;2022-10-17T06:39:36;19.40;;;11.43;;
18176;SDS011;9213;50.858;3.964;2022-10-17T06:42:03;24.43;;;11.70;;
18176;SDS011;9213;50.858;3.964;2022-10-17T06:44:30;16.13;;;10.63;;
18176;SDS011;9213;50.858;3.964;2022-10-17T06:46:59;11.83;;;7.93;;
18176;SDS011;9213;50.858;3.964;2022-10-17T06:49:26;11.90;;;8.10;;
18176;SDS011;9213;50.858;3.964;2022-10-17T06:51:54;14.57;;;8.60;;
18176;SDS011;9213;50.858;3.964;2022-10-17T06:54:21;11.10;;;8.87;;
18176;SDS011;9213;50.858;3.964;2022-10-17T06:56:47;18.27;;;9.80;;
18176;SDS011;9213;50.858;3.964;2022-10-17T06:59:14;15.33;;;9.57;;
18176;SDS011;9213;50.858;3.964;2022-10-17T07:01:41;14.53;;;10.17;;
18176;SDS011;9213;50.858;3.964;2022-10-17T07:04:09;19.67;;;11.20;;
18176;SDS011;9213;50.858;3.964;2022-10-17T07:06:36;16.00;;;12.47;;
18176;SDS011;9213;50.858;3.964;2022-10-17T07:09:03;22.80;;;14.33;;
18176;SDS011;9213;50.858;3.964;2022-10-17T07:11:32;20.83;;;13.77;;
18176;SDS011;9213;50.858;3.964;2022-10-17T07:13:59;19.47;;;14.10;;
18176;SDS011;9213;50.858;3.964;2022-10-17T07:16:27;23.60;;;14.00;;
18176;SDS011;9213;50.858;3.964;2022-10-17T07:18:54;25.87;;;13.07;;
18176;SDS011;9213;50.858;3.964;2022-10-17T07:21:23;21.63;;;13.00;;
18176;SDS011;9213;50.858;3.964;2022-10-17T07:23:50;18.73;;;10.57;;
18176;SDS011;9213;50.858;3.964;2022-10-17T07:26:17;19.60;;;10.10;;
18176;SDS011;9213;50.858;3.964;2022-10-17T07:28:45;16.00;;;10.30;;
18176;SDS011;9213;50.858;3.964;2022-10-17T07:31:13;19.40;;;10.37;;
18176;SDS011;9213;50.858;3.964;2022-10-17T07:33:42;16.97;;;9.53;;
18176;SDS011;9213;50.858;3.964;2022-10-17T07:36:09;12.67;;;9.10;;
18176;SDS011;9213;50.858;3.964;2022-10-17T07:38:38;14.17;;;9.10;;
18176;SDS011;9213;50.858;3.964;2022-10-17T07:41:06;18.87;;;10.40;;
18176;SDS011;9213;50.858;3.964;2022-10-17T07:43:34;13.73;;;9.17;;
18176;SDS011;9213;50.858;3.964;2022-10-17T07:46:02;13.47;;;9.50;;
18176;SDS011;9213;50.858;3.964;2022-10-17T07:48:30;15.60;;;9.40;;
18176;SDS011;9213;50.858;3.964;2022-10-17T07:50:58;14.80;;;10.03;;
18176;SDS011;9213;50.858;3.964;2022-10-17T07:53:27;15.67;;;9.23;;
18176;SDS011;9213;50.858;3.964;2022-10-17T07:55:56;17.67;;;9.87;;
18176;SDS011;9213;50.858;3.964;2022-10-17T07:58:23;17.87;;;9.73;;
18176;SDS011;9213;50.858;3.964;2022-10-17T08:00:50;13.17;;;8.50;;
18176;SDS011;9213;50.858;3.964;2022-10-17T08:03:17;15.93;;;9.43;;
18176;SDS011;9213;50.858;3.964;2022-10-17T08:05:43;16.07;;;8.90;;
18176;SDS011;9213;50.858;3.964;2022-10-17T08:08:10;16.70;;;9.07;;
18176;SDS011;9213;50.858;3.964;2022-10-17T08:10:37;16.63;;;8.73;;
18176;SDS011;9213;50.858;3.964;2022-10-17T08:13:05;14.67;;;8.90;;
18176;SDS011;9213;50.858;3.964;2022-10-17T08:15:33;14.03;;;9.77;;
18176;SDS011;9213;50.858;3.964;2022-10-17T08:18:02;15.40;;;10.07;;
18176;SDS011;9213;50.858;3.964;2022-10-17T08:20:29;14.47;;;9.90;;
18176;SDS011;9213;50.858;3.964;2022-10-17T08:22:56;15.53;;;9.90;;
18176;SDS011;9213;50.858;3.964;2022-10-17T08:25:23;20.03;;;11.20;;
18176;SDS011;9213;50.858;3.964;2022-10-17T08:27:50;17.23;;;11.07;;
18176;SDS011;9213;50.858;3.964;2022-10-17T08:30:18;16.30;;;10.67;;
18176;SDS011;9213;50.858;3.964;2022-10-17T08:32:45;14.20;;;9.40;;
18176;SDS011;9213;50.858;3.964;2022-10-17T08:35:12;16.50;;;11.10;;
18176;SDS011;9213;50.858;3.964;2022-10-17T08:37:39;16.50;;;10.33;;
18176;SDS011;9213;50.858;3.964;2022-10-17T08:40:08;17.67;;;11.30;;
18176;SDS011;9213;50.858;3.964;2022-10-17T08:42:59;27.10;;;12.50;;
18176;SDS011;9213;50.858;3.964;2022-10-17T08:45:46;18.47;;;12.30;;
18176;SDS011;9213;50.858;3.964;2022-10-17T08:48:18;19.33;;;12.70;;
18176;SDS011;9213;50.858;3.964;2022-10-17T08:50:49;20.73;;;13.00;;
18176;SDS011;9213;50.858;3.964;2022-10-17T08:53:19;23.70;;;13.53;;
18176;SDS011;9213;50.858;3.964;2022-10-17T08:55:51;26.20;;;13.77;;
18176;SDS011;9213;50.858;3.964;2022-10-17T08:58:20;22.87;;;13.47;;
18176;SDS011;9213;50.858;3.964;2022-10-17T09:00:51;23.87;;;12.50;;
18176;SDS011;9213;50.858;3.964;2022-10-17T09:03:29;19.33;;;11.40;;
18176;SDS011;9213;50.858;3.964;2022-10-17T09:06:14;20.93;;;11.47;;
18176;SDS011;9213;50.858;3.964;2022-10-17T09:08:51;17.60;;;10.70;;
18176;SDS011;9213;50.858;3.964;2022-10-17T09:11:35;17.93;;;11.80;;
18176;SDS011;9213;50.858;3.964;2022-10-17T09:14:15;21.10;;;12.80;;
18176;SDS011;9213;50.858;3.964;2022-10-17T09:16:56;19.43;;;12.17;;
18176;SDS011;9213;50.858;3.964;2022-10-17T09:19:32;20.00;;;12.43;;
18176;SDS011;9213;50.858;3.964;2022-10-17T09:22:03;16.53;;;12.57;;
18176;SDS011;9213;50.858;3.964;2022-10-17T09:24:37;17.57;;;12.03;;
18176;SDS011;9213;50.858;3.964;2022-10-17T09:27:16;20.00;;;12.63;;
18176;SDS011;9213;50.858;3.964;2022-10-17T09:29:49;19.33;;;12.93;;
18176;SDS011;9213;50.858;3.964;2022-10-17T09:32:21;20.47;;;12.73;;
18176;SDS011;9213;50.858;3.964;2022-10-17T09:34:50;21.00;;;13.47;;
18176;SDS011;9213;50.858;3.964;2022-10-17T09:37:18;27.57;;;13.20;;
18176;SDS011;9213;50.858;3.964;2022-10-17T09:39:50;20.63;;;13.83;;
18176;SDS011;9213;50.858;3.964;2022-10-17T09:42:18;17.10;;;12.57;;
18176;SDS011;9213;50.858;3.964;2022-10-17T09:44:48;20.20;;;12.67;;
18176;SDS011;9213;50.858;3.964;2022-10-17T09:47:23;17.77;;;12.87;;
18176;SDS011;9213;50.858;3.964;2022-10-17T09:49:54;16.67;;;11.80;;
18176;SDS011;9213;50.858;3.964;2022-10-17T09:52:24;21.03;;;12.40;;
18176;SDS011;9213;50.858;3.964;2022-10-17T09:54:56;17.27;;;12.53;;
18176;SDS011;9213;50.858;3.964;2022-10-17T09:57:27;21.40;;;12.73;;
18176;SDS011;9213;50.858;3.964;2022-10-17T09:59:57;30.30;;;13.43;;
18176;SDS011;9213;50.858;3.964;2022-10-17T10:02:27;21.30;;;13.00;;
18176;SDS011;9213;50.858;3.964;2022-10-17T10:04:57;13.70;;;12.07;;
18176;SDS011;9213;50.858;3.964;2022-10-17T10:07:26;18.27;;;12.70;;
18176;SDS011;9213;50.858;3.964;2022-10-17T10:09:54;22.07;;;11.93;;
18176;SDS011;9213;50.858;3.964;2022-10-17T10:12:23;15.03;;;12.47;;
18176;SDS011;9213;50.858;3.964;2022-10-17T10:14:52;19.13;;;11.90;;
18176;SDS011;9213;50.858;3.964;2022-10-17T10:17:28;19.87;;;12.43;;
18176;SDS011;9213;50.858;3.964;2022-10-17T10:20:00;21.50;;;12.10;;
18176;SDS011;9213;50.858;3.964;2022-10-17T10:22:29;22.17;;;11.93;;
18176;SDS011;9213;50.858;3.964;2022-10-17T10:25:06;18.60;;;11.33;;
18176;SDS011;9213;50.858;3.964;2022-10-17T10:27:33;19.87;;;11.97;;
18176;SDS011;9213;50.858;3.964;2022-10-17T10:30:02;19.80;;;12.23;;
18176;SDS011;9213;50.858;3.964;2022-10-17T10:32:31;22.73;;;13.20;;
18176;SDS011;9213;50.858;3.964;2022-10-17T10:35:01;18.93;;;12.47;;
18176;SDS011;9213;50.858;3.964;2022-10-17T10:37:32;22.50;;;12.63;;
18176;SDS011;9213;50.858;3.964;2022-10-17T10:40:04;17.43;;;13.00;;
18176;SDS011;9213;50.858;3.964;2022-10-17T10:42:40;16.03;;;12.70;;
18176;SDS011;9213;50.858;3.964;2022-10-17T10:45:14;15.37;;;12.47;;
18176;SDS011;9213;50.858;3.964;2022-10-17T10:47:50;21.20;;;13.07;;
18176;SDS011;9213;50.858;3.964;2022-10-17T10:50:25;17.10;;;12.37;;
18176;SDS011;9213;50.858;3.964;2022-10-17T10:53:08;13.57;;;12.00;;
18176;SDS011;9213;50.858;3.964;2022-10-17T10:55:41;18.43;;;12.30;;
18176;SDS011;9213;50.858;3.964;2022-10-17T10:58:27;17.70;;;11.57;;
18176;SDS011;9213;50.858;3.964;2022-10-17T11:01:04;16.90;;;12.97;;
18176;SDS011;9213;50.858;3.964;2022-10-17T11:03:38;16.45;;;12.65;;
18176;SDS011;9213;50.858;3.964;2022-10-17T11:06:11;17.30;;;12.17;;
18176;SDS011;9213;50.858;3.964;2022-10-17T11:08:41;15.53;;;12.60;;
18176;SDS011;9213;50.858;3.964;2022-10-17T11:11:12;16.87;;;13.00;;
18176;SDS011;9213;50.858;3.964;2022-10-17T11:13:49;19.17;;;11.80;;
18176;SDS011;9213;50.858;3.964;2022-10-17T11:16:22;18.93;;;12.30;;
18176;SDS011;9213;50.858;3.964;2022-10-17T11:18:57;20.20;;;11.63;;
18176;SDS011;9213;50.858;3.964;2022-10-17T11:21:34;13.23;;;10.27;;
18176;SDS011;9213;50.858;3.964;2022-10-17T11:24:07;14.87;;;9.97;;
18176;SDS011;9213;50.858;3.964;2022-10-17T11:26:41;15.67;;;9.70;;
18176;SDS011;9213;50.858;3.964;2022-10-17T11:29:11;12.57;;;9.90;;
18176;SDS011;9213;50.858;3.964;2022-10-17T11:31:39;13.70;;;8.85;;
18176;SDS011;9213;50.858;3.964;2022-10-17T11:34:14;12.70;;;9.10;;
18176;SDS011;9213;50.858;3.964;2022-10-17T11:36:46;12.17;;;8.00;;
18176;SDS011;9213;50.858;3.964;2022-10-17T11:39:17;13.00;;;8.57;;
18176;SDS011;9213;50.858;3.964;2022-10-17T11:41:48;10.25;;;8.30;;
18176;SDS011;9213;50.858;3.964;2022-10-17T11:44:19;13.17;;;8.77;;
18176;SDS011;9213;50.858;3.964;2022-10-17T11:46:51;14.80;;;8.07;;
18176;SDS011;9213;50.858;3.964;2022-10-17T11:49:22;10.02;;;7.50;;
18176;SDS011;9213;50.858;3.964;2022-10-17T11:51:53;9.20;;;7.57;;
18176;SDS011;9213;50.858;3.964;2022-10-17T11:54:27;10.20;;;7.27;;
18176;SDS011;9213;50.858;3.964;2022-10-17T11:57:02;10.50;;;7.13;;
18176;SDS011;9213;50.858;3.964;2022-10-17T11:59:46;14.27;;;7.33;;
18176;SDS011;9213;50.858;3.964;2022-10-17T12:02:20;14.23;;;7.50;;
18176;SDS011;9213;50.858;3.964;2022-10-17T12:04:59;10.77;;;7.20;;
18176;SDS011;9213;50.858;3.964;2022-10-17T12:07:34;12.27;;;7.30;;
18176;SDS011;9213;50.858;3.964;2022-10-17T12:10:14;11.70;;;7.17;;
18176;SDS011;9213;50.858;3.964;2022-10-17T12:12:48;12.57;;;7.50;;
18176;SDS011;9213;50.858;3.964;2022-10-17T12:15:28;15.80;;;7.40;;
18176;SDS011;9213;50.858;3.964;2022-10-17T12:17:56;10.10;;;6.55;;
18176;SDS011;9213;50.858;3.964;2022-10-17T12:20:31;10.93;;;7.73;;
18176;SDS011;9213;50.858;3.964;2022-10-17T12:23:13;14.32;;;8.10;;
18176;SDS011;9213;50.858;3.964;2022-10-17T12:25:49;10.05;;;6.13;;
18176;SDS011;9213;50.858;3.964;2022-10-17T12:28:20;9.35;;;6.68;;
18176;SDS011;9213;50.858;3.964;2022-10-17T12:30:53;11.63;;;7.20;;
18176;SDS011;9213;50.858;3.964;2022-10-17T12:33:24;11.77;;;6.50;;
18176;SDS011;9213;50.858;3.964;2022-10-17T12:51:27;10.60;;;5.63;;
18176;SDS011;9213;50.858;3.964;2022-10-17T12:53:56;7.47;;;5.60;;
18176;SDS011;9213;50.858;3.964;2022-10-17T12:56:33;13.57;;;5.70;;
18176;SDS011;9213;50.858;3.964;2022-10-17T12:59:06;7.93;;;5.55;;
18176;SDS011;9213;50.858;3.964;2022-10-17T13:01:35;8.73;;;5.60;;
18176;SDS011;9213;50.858;3.964;2022-10-17T13:04:03;10.13;;;5.50;;
18176;SDS011;9213;50.858;3.964;2022-10-17T13:06:33;7.23;;;5.50;;
18176;SDS011;9213;50.858;3.964;2022-10-17T13:09:05;10.55;;;4.97;;
18176;SDS011;9213;50.858;3.964;2022-10-17T13:11:35;10.00;;;6.10;;
18176;SDS011;9213;50.858;3.964;2022-10-17T13:14:04;10.60;;;5.53;;
18176;SDS011;9213;50.858;3.964;2022-10-17T13:16:38;8.48;;;5.40;;
18176;SDS011;9213;50.858;3.964;2022-10-17T13:19:11;8.30;;;5.25;;
18176;SDS011;9213;50.858;3.964;2022-10-17T13:21:47;7.57;;;5.32;;
18176;SDS011;9213;50.858;3.964;2022-10-17T13:24:18;8.50;;;5.20;;
18176;SDS011;9213;50.858;3.964;2022-10-17T13:26:46;11.48;;;5.32;;
18176;SDS011;9213;50.858;3.964;2022-10-17T13:29:14;12.77;;;5.53;;
18176;SDS011;9213;50.858;3.964;2022-10-17T13:31:43;9.43;;;5.33;;
18176;SDS011;9213;50.858;3.964;2022-10-17T13:34:14;10.87;;;5.30;;
18176;SDS011;9213;50.858;3.964;2022-10-17T13:36:42;10.77;;;5.60;;
18176;SDS011;9213;50.858;3.964;2022-10-17T13:39:12;7.80;;;6.00;;
18176;SDS011;9213;50.858;3.964;2022-10-17T13:41:42;16.45;;;6.03;;
18176;SDS011;9213;50.858;3.964;2022-10-17T13:44:11;10.50;;;5.70;;
18176;SDS011;9213;50.858;3.964;2022-10-17T13:46:41;11.88;;;5.80;;
18176;SDS011;9213;50.858;3.964;2022-10-17T13:49:10;10.03;;;5.97;;
18176;SDS011;9213;50.858;3.964;2022-10-17T13:51:42;10.57;;;5.85;;
18176;SDS011;9213;50.858;3.964;2022-10-17T13:54:17;10.20;;;5.95;;
18176;SDS011;9213;50.858;3.964;2022-10-17T13:57:02;9.20;;;5.75;;
18176;SDS011;9213;50.858;3.964;2022-10-17T13:59:30;9.13;;;5.80;;
18176;SDS011;9213;50.858;3.964;2022-10-17T14:02:03;6.80;;;5.50;;
18176;SDS011;9213;50.858;3.964;2022-10-17T14:04:36;10.63;;;6.80;;
18176;SDS011;9213;50.858;3.964;2022-10-17T14:07:03;5.45;;;4.95;;
18176;SDS011;9213;50.858;3.964;2022-10-17T14:09:31;5.85;;;5.13;;
18176;SDS011;9213;50.858;3.964;2022-10-17T14:12:00;8.25;;;5.75;;
18176;SDS011;9213;50.858;3.964;2022-10-17T14:14:31;7.17;;;5.03;;
18176;SDS011;9213;50.858;3.964;2022-10-17T14:16:58;11.27;;;6.13;;
18176;SDS011;9213;50.858;3.964;2022-10-17T14:19:27;8.37;;;5.70;;
18176;SDS011;9213;50.858;3.964;2022-10-17T14:24:42;9.13;;;5.43;;
18176;SDS011;9213;50.858;3.964;2022-10-17T14:27:24;12.73;;;6.03;;
18176;SDS011;9213;50.858;3.964;2022-10-17T14:29:53;11.10;;;6.88;;
18176;SDS011;9213;50.858;3.964;2022-10-17T14:32:24;13.32;;;6.32;;
18176;SDS011;9213;50.858;3.964;2022-10-17T14:34:55;10.90;;;5.90;;
18176;SDS011;9213;50.858;3.964;2022-10-17T14:37:29;14.27;;;6.10;;
18176;SDS011;9213;50.858;3.964;2022-10-17T14:40:00;22.15;;;6.35;;
18176;SDS011;9213;50.858;3.964;2022-10-17T14:42:27;8.18;;;6.63;;
18176;SDS011;9213;50.858;3.964;2022-10-17T14:44:56;10.07;;;6.50;;
18176;SDS011;9213;50.858;3.964;2022-10-17T14:47:31;9.73;;;5.93;;
18176;SDS011;9213;50.858;3.964;2022-10-17T14:50:04;11.13;;;5.88;;
18176;SDS011;9213;50.858;3.964;2022-10-17T14:52:48;9.25;;;6.13;;
18176;SDS011;9213;50.858;3.964;2022-10-17T14:55:25;7.43;;;5.65;;
18176;SDS011;9213;50.858;3.964;2022-10-17T14:57:53;11.48;;;5.88;;
18176;SDS011;9213;50.858;3.964;2022-10-17T15:00:21;6.93;;;6.03;;
18176;SDS011;9213;50.858;3.964;2022-10-17T15:02:49;9.82;;;5.85;;
18176;SDS011;9213;50.858;3.964;2022-10-17T15:05:18;6.72;;;5.30;;
18176;SDS011;9213;50.858;3.964;2022-10-17T15:07:47;14.37;;;5.30;;
18176;SDS011;9213;50.858;3.964;2022-10-17T15:13:00;9.05;;;5.28;;
18176;SDS011;9213;50.858;3.964;2022-10-17T15:15:27;9.93;;;5.20;;
18176;SDS011;9213;50.858;3.964;2022-10-17T15:17:55;11.50;;;6.20;;
18176;SDS011;9213;50.858;3.964;2022-10-17T15:20:24;11.00;;;5.73;;
18176;SDS011;9213;50.858;3.964;2022-10-17T15:22:52;8.63;;;5.38;;
18176;SDS011;9213;50.858;3.964;2022-10-17T15:25:19;11.07;;;5.60;;